Time;durP1;ratioP1;P1;durP2;ratioP2;P2;SDS_P1;SDS_P2;PMS_P1;PMS_P2;Temp;Humidity;BMP_temperature;BMP_pressure;BME280_temperature;BME280_humidity;BME280_pressure;Samples;Min_cycle;Max_cycle;Signal;HPM_P1;HPM_P2
2022/12/09 00:01:45;;;;;;;5.17;4.57;;;;;;;-2.93;100.00;100844.63;5016928;28;20037;-70
2022/12/09 00:04:10;;;;;;;4.13;3.50;;;;;;;-3.05;100.00;100821.78;5033993;28;20025;-71
2022/12/09 00:06:36;;;;;;;4.60;4.17;;;;;;;-2.77;100.00;100872.56;4999879;28;20040;-70
2022/12/09 00:09:01;;;;;;;4.87;4.37;;;;;;;-2.86;100.00;100868.66;5034117;28;20026;-72
2022/12/09 00:11:27;;;;;;;5.30;4.37;;;;;;;-2.86;100.00;100876.47;5033993;28;20056;-70
2022/12/09 00:13:55;;;;;;;4.67;3.90;;;;;;;-2.75;100.00;100886.38;5033810;28;20026;-69
2022/12/09 00:16:22;;;;;;;5.07;4.03;;;;;;;-2.69;100.00;100888.66;5033953;28;20052;-71
2022/12/09 00:18:48;;;;;;;6.50;4.28;;;;;;;-2.82;100.00;100862.38;5032712;28;20049;-69
2022/12/09 00:21:23;;;;;;;7.00;4.25;;;;;;;-2.68;100.00;100898.16;5032979;28;20033;-69
2022/12/09 00:23:49;;;;;;;4.63;4.07;;;;;;;-2.77;100.00;100888.19;5034127;28;20033;-71
2022/12/09 00:26:17;;;;;;;5.38;3.88;;;;;;;-2.76;100.00;100897.72;5033126;28;20028;-71
2022/12/09 00:28:43;;;;;;;5.43;4.30;;;;;;;-2.74;100.00;100901.09;5035175;28;20117;-71
2022/12/09 00:31:12;;;;;;;5.20;3.97;;;;;;;-2.81;100.00;100901.38;5033505;28;20040;-70
2022/12/09 00:33:38;;;;;;;5.93;4.18;;;;;;;-2.70;100.00;100916.50;5033195;28;20037;-70
2022/12/09 00:36:05;;;;;;;5.17;4.00;;;;;;;-2.69;100.00;100912.97;5033077;28;20372;-70
2022/12/09 00:38:31;;;;;;;4.07;3.65;;;;;;;-2.71;100.00;100913.97;5033054;28;20034;-69
2022/12/09 00:40:56;;;;;;;5.13;4.50;;;;;;;-2.76;100.00;100913.34;5032988;28;20040;-69
2022/12/09 00:43:22;;;;;;;4.40;4.00;;;;;;;-2.71;100.00;100919.19;5032896;28;20056;-70
2022/12/09 00:45:47;;;;;;;4.67;3.83;;;;;;;-2.70;100.00;100931.28;5032535;28;20036;-69
2022/12/09 00:48:13;;;;;;;6.73;3.93;;;;;;;-2.69;100.00;100930.38;5033248;28;20032;-70
2022/12/09 00:50:38;;;;;;;5.47;3.80;;;;;;;-2.69;100.00;100930.38;5015161;28;20037;-70
2022/12/09 00:53:04;;;;;;;4.80;3.53;;;;;;;-2.79;100.00;100929.97;5036942;28;20056;-70
2022/12/09 00:55:30;;;;;;;4.88;3.40;;;;;;;-2.74;100.00;100937.56;5042695;28;20079;-70
2022/12/09 00:57:55;;;;;;;3.77;3.47;;;;;;;-2.67;100.00;100944.16;5042226;28;20092;-69
2022/12/09 01:00:21;;;;;;;6.23;3.70;;;;;;;-2.68;100.00;100925.09;5034308;28;20105;-69
2022/12/09 01:02:46;;;;;;;5.03;4.53;;;;;;;-2.58;100.00;100942.00;5033912;28;20034;-70
2022/12/09 01:05:12;;;;;;;5.33;3.30;;;;;;;-2.50;100.00;100946.81;5014906;28;20424;-70
2022/12/09 01:07:37;;;;;;;5.17;3.57;;;;;;;-2.46;100.00;100943.13;5018646;28;20049;-69
2022/12/09 01:10:04;;;;;;;6.90;4.37;;;;;;;-2.42;100.00;100939.47;5021054;28;20030;-70
2022/12/09 01:12:33;;;;;;;6.80;4.50;;;;;;;-2.34;100.00;100955.56;5039950;28;20021;-68
2022/12/09 01:15:14;;;;;;;7.28;4.47;;;;;;;-2.28;100.00;100952.69;5041482;28;20116;-67
2022/12/09 01:17:49;;;;;;;5.30;4.32;;;;;;;-2.28;100.00;100957.91;5009028;28;20057;-69
2022/12/09 01:20:14;;;;;;;4.53;3.80;;;;;;;-2.26;100.00;100956.06;5042586;28;20037;-71
2022/12/09 01:22:40;;;;;;;6.93;3.83;;;;;;;-2.20;100.00;100960.97;5038308;28;20105;-70
2022/12/09 01:25:05;;;;;;;8.23;6.80;;;;;;;-2.15;100.00;100959.88;5032657;28;20089;-71
2022/12/09 01:27:31;;;;;;;7.20;4.50;;;;;;;-2.15;100.00;100949.44;5032505;28;20021;-70
2022/12/09 01:29:57;;;;;;;5.53;4.90;;;;;;;-2.03;100.00;100967.06;5033759;28;20025;-70
2022/12/09 01:32:22;;;;;;;6.43;3.83;;;;;;;-1.99;100.00;100971.25;5018957;28;20064;-70
2022/12/09 01:34:48;;;;;;;5.77;4.40;;;;;;;-1.98;100.00;100962.50;5036267;28;20029;-71
2022/12/09 01:37:13;;;;;;;5.27;4.00;;;;;;;-2.22;100.00;100915.84;5019272;28;20112;-68
2022/12/09 01:39:41;;;;;;;6.53;3.97;;;;;;;-1.83;100.00;100972.13;5039516;28;20025;-70
2022/12/09 01:42:16;;;;;;;5.35;3.58;;;;;;;-2.08;100.00;100929.94;5039608;28;20025;-69
2022/12/09 01:45:20;;;;;;;7.47;4.00;;;;;;;-1.83;100.00;100985.19;5037665;28;20049;-71
2022/12/09 01:47:58;;;;;;;6.10;3.63;;;;;;;-1.84;100.00;100973.06;5007137;28;20284;-69
2022/12/09 01:50:25;;;;;;;3.63;3.30;;;;;;;-1.78;100.00;100983.19;5036187;28;20025;-70
2022/12/09 01:52:50;;;;;;;4.40;4.00;;;;;;;-1.71;100.00;100978.53;5037299;28;20263;-68
2022/12/09 01:55:16;;;;;;;6.40;3.47;;;;;;;-1.98;100.00;100934.63;5036193;28;20600;-69
2022/12/09 01:57:44;;;;;;;4.53;3.87;;;;;;;-1.73;100.00;100976.00;5038109;28;20045;-69
2022/12/09 02:00:10;;;;;;;4.77;3.10;;;;;;;-1.72;100.00;100982.06;5040118;28;20268;-67
2022/12/09 02:02:38;;;;;;;5.40;3.10;;;;;;;-1.73;100.00;100981.22;5039489;28;20405;-71
2022/12/09 02:05:04;;;;;;;9.87;3.90;;;;;;;-1.70;100.00;100975.81;5036078;28;20710;-69
2022/12/09 02:07:30;;;;;;;5.70;3.37;;;;;;;-1.71;100.00;100979.34;5035629;28;20268;-69
2022/12/09 02:09:56;;;;;;;3.63;3.20;;;;;;;-1.71;100.00;100987.19;5036479;28;20260;-69
2022/12/09 02:12:46;;;;;;;6.43;3.60;;;;;;;-1.65;100.00;100981.66;5035898;28;20603;-69
2022/12/09 02:15:18;;;;;;;3.33;3.03;;;;;;;-1.65;100.00;100984.25;5038535;28;20029;-70
2022/12/09 02:17:57;;;;;;;3.43;2.80;;;;;;;-1.58;100.00;100993.47;5036598;28;20252;-69
2022/12/09 02:20:26;;;;;;;4.50;3.27;;;;;;;-1.49;99.88;100988.66;5035234;28;20624;-70
2022/12/09 02:23:17;;;;;;;3.42;3.00;;;;;;;-1.56;100.00;100970.72;5035199;28;20608;-70
2022/12/09 02:25:48;;;;;;;3.77;3.37;;;;;;;-1.44;99.49;100986.69;5035350;28;20172;-70
2022/12/09 02:28:20;;;;;;;3.93;3.17;;;;;;;-1.41;99.95;100992.59;5035327;28;20296;-70
2022/12/09 02:31:20;;;;;;;5.03;4.23;;;;;;;-1.41;99.66;100979.53;5035068;28;20256;-69
2022/12/09 02:34:05;;;;;;;7.37;3.30;;;;;;;-1.37;99.60;100993.28;5017336;28;20264;-70
2022/12/09 02:36:58;;;;;;;3.30;3.00;;;;;;;-1.33;99.51;100986.94;5035953;28;20253;-68
2022/12/09 02:39:32;;;;;;;3.80;2.83;;;;;;;-1.63;99.51;100939.78;5035180;28;20314;-70
2022/12/09 02:42:01;;;;;;;4.40;3.20;;;;;;;-1.39;99.55;100979.44;5033085;28;20359;-69
2022/12/09 02:44:26;;;;;;;4.23;3.27;;;;;;;-1.37;99.93;100988.03;5035037;28;20268;-70
2022/12/09 02:46:54;;;;;;;5.40;3.30;;;;;;;-1.39;99.43;100976.84;5035495;28;20303;-69
2022/12/09 02:49:22;;;;;;;4.30;3.30;;;;;;;-1.34;99.69;100987.88;5034807;28;20025;-68
2022/12/09 02:51:49;;;;;;;5.82;2.97;;;;;;;-1.35;99.61;100975.75;5034761;28;20025;-71
2022/12/09 02:54:16;;;;;;;4.17;3.33;;;;;;;-1.27;99.42;100994.47;5034488;28;20351;-69
2022/12/09 02:56:55;;;;;;;6.23;3.90;;;;;;;-1.28;99.75;100987.53;5016990;28;20268;-70
2022/12/09 02:59:21;;;;;;;4.00;3.60;;;;;;;-1.22;99.22;100992.44;5034615;28;20315;-70
2022/12/09 03:02:04;;;;;;;8.47;4.27;;;;;;;-1.24;98.90;100989.06;5034543;28;20588;-72
2022/12/09 03:04:30;;;;;;;4.53;3.83;;;;;;;-1.24;99.14;100994.28;5034542;28;20018;-69
2022/12/09 03:07:19;;;;;;;4.17;3.37;;;;;;;-1.22;98.74;100989.81;5034569;28;20302;-71
2022/12/09 03:10:02;;;;;;;5.03;3.97;;;;;;;-1.20;99.59;100990.59;5032196;28;20036;-71
2022/12/09 03:12:31;;;;;;;6.03;3.83;;;;;;;-1.20;99.17;100987.97;5016779;28;20260;-70
2022/12/09 03:14:59;;;;;;;6.15;3.45;;;;;;;-1.18;99.44;100988.72;5034313;28;20268;-70
2022/12/09 03:17:35;;;;;;;4.60;3.70;;;;;;;-1.19;98.90;100992.28;5033924;28;20029;-69
2022/12/09 03:20:16;;;;;;;4.00;3.67;;;;;;;-1.23;98.95;100990.75;5034511;28;20631;-71
2022/12/09 03:22:44;;;;;;;4.70;3.17;;;;;;;-1.25;99.18;100995.22;5034332;28;20303;-70
2022/12/09 03:25:19;;;;;;;3.53;3.22;;;;;;;-1.26;99.10;100988.31;5033963;28;20271;-71
2022/12/09 03:27:55;;;;;;;5.73;4.13;;;;;;;-1.23;99.32;100995.13;5034206;28;20025;-70
2022/12/09 03:30:21;;;;;;;8.10;4.00;;;;;;;-1.24;99.26;100991.69;5034203;28;20268;-71
2022/12/09 03:32:48;;;;;;;4.73;4.23;;;;;;;-1.23;99.99;100989.91;5034525;28;20644;-70
2022/12/09 03:35:20;;;;;;;7.40;4.03;;;;;;;-1.33;99.57;100969.50;5019271;28;20025;-71
2022/12/09 03:37:47;;;;;;;6.57;4.20;;;;;;;-1.25;99.56;100983.00;5033845;28;20732;-70
2022/12/09 03:40:15;;;;;;;5.20;4.03;;;;;;;-1.21;100.00;100993.28;5034259;28;20326;-70
2022/12/09 03:42:57;;;;;;;9.02;4.45;;;;;;;-1.21;100.00;100990.66;5034877;28;20257;-71
2022/12/09 03:45:23;;;;;;;7.73;5.07;;;;;;;-1.15;100.00;101004.28;5037892;28;20369;-70
2022/12/09 03:47:50;;;;;;;6.20;5.03;;;;;;;-1.19;100.00;100997.50;5034642;28;20249;-70
2022/12/09 03:50:16;;;;;;;6.40;4.60;;;;;;;-1.17;100.00;101000.03;5033864;28;20271;-70
2022/12/09 03:52:52;;;;;;;5.37;4.50;;;;;;;-1.17;100.00;100998.25;4999210;28;20311;-69
2022/12/09 03:55:33;;;;;;;7.63;4.67;;;;;;;-1.15;100.00;100985.97;5033815;28;20359;-73
2022/12/09 03:58:00;;;;;;;4.30;3.47;;;;;;;-1.04;100.00;101001.91;5033125;28;20275;-70
2022/12/09 04:00:50;;;;;;;7.60;3.80;;;;;;;-1.11;100.00;100992.72;5033629;28;20274;-70
2022/12/09 04:03:23;;;;;;;6.20;3.93;;;;;;;-1.11;100.00;100995.34;4999920;28;20367;-79
2022/12/09 04:05:50;;;;;;;6.87;4.57;;;;;;;-1.12;100.00;100998.88;5000304;28;20477;-70
2022/12/09 04:08:15;;;;;;;6.33;5.03;;;;;;;-1.08;100.00;101005.63;5033384;28;20260;-76
2022/12/09 04:10:41;;;;;;;4.70;4.20;;;;;;;-1.09;100.00;101003.94;5033250;28;20061;-69
2022/12/09 04:13:06;;;;;;;6.83;5.10;;;;;;;-1.07;100.00;101006.47;5033053;28;20076;-71
2022/12/09 04:15:32;;;;;;;6.57;4.50;;;;;;;-1.10;100.00;101002.25;5015426;28;20025;-69
2022/12/09 04:17:59;;;;;;;7.60;5.10;;;;;;;-1.17;100.00;101000.88;5033611;28;20049;-71
2022/12/09 04:20:50;;;;;;;6.30;5.13;;;;;;;-1.25;100.00;100988.22;5034168;28;20048;-72
2022/12/09 04:23:15;;;;;;;8.00;5.53;;;;;;;-1.26;100.00;100996.16;5033560;28;20355;-69
2022/12/09 04:25:41;;;;;;;7.30;5.33;;;;;;;-1.29;100.00;101004.16;5014956;28;20048;-70
2022/12/09 04:28:07;;;;;;;6.53;5.13;;;;;;;-1.32;100.00;100996.47;5031631;28;20496;-70
2022/12/09 04:30:33;;;;;;;9.60;5.80;;;;;;;-1.28;100.00;100992.78;5015964;28;20025;-70
2022/12/09 04:32:59;;;;;;;7.97;5.07;;;;;;;-1.29;100.00;100996.31;5033480;28;20267;-75
2022/12/09 04:35:25;;;;;;;6.10;5.20;;;;;;;-1.27;100.00;100991.84;5015350;28;20064;-75
2022/12/09 04:37:51;;;;;;;8.10;5.70;;;;;;;-1.21;100.00;100993.28;5033142;28;20271;-69
2022/12/09 04:40:17;;;;;;;12.77;6.17;;;;;;;-1.21;100.00;100986.28;5033195;28;20616;-69
2022/12/09 04:42:42;;;;;;;5.80;4.70;;;;;;;-1.34;100.00;100969.59;5032719;28;20026;-69
2022/12/09 04:45:08;;;;;;;11.07;5.17;;;;;;;-1.19;100.00;100988.81;5032555;28;20325;-69
2022/12/09 04:47:34;;;;;;;8.63;6.37;;;;;;;-1.14;100.00;100984.22;5032428;28;20026;-70
2022/12/09 04:49:59;;;;;;;6.53;5.30;;;;;;;-1.40;100.00;100941.19;5033304;28;20589;-71
2022/12/09 04:52:25;;;;;;;8.70;5.13;;;;;;;-1.09;100.00;100993.50;5033065;28;20040;-75
2022/12/09 04:54:50;;;;;;;7.83;4.70;;;;;;;-1.07;100.00;100990.78;5032188;28;20116;-69
2022/12/09 04:57:17;;;;;;;14.23;5.30;;;;;;;-1.19;100.00;100966.13;5032381;28;20052;-70
2022/12/09 04:59:42;;;;;;;8.57;5.00;;;;;;;-1.12;100.00;100985.81;5032427;28;20388;-70
2022/12/09 05:02:10;;;;;;;7.17;5.57;;;;;;;-1.10;100.00;100986.56;5032701;28;20402;-71
2022/12/09 05:04:35;;;;;;;9.27;4.87;;;;;;;-1.06;100.00;100989.88;5031911;28;20252;-70
2022/12/09 05:07:01;;;;;;;8.03;5.40;;;;;;;-1.08;100.00;100983.88;5032185;28;20036;-69
2022/12/09 05:09:26;;;;;;;12.00;6.07;;;;;;;-1.00;100.00;100987.75;5032092;28;20088;-71
2022/12/09 05:11:52;;;;;;;7.17;5.83;;;;;;;-0.95;100.00;100995.34;5032849;28;20021;-69
2022/12/09 05:14:18;;;;;;;6.20;5.37;;;;;;;-0.95;100.00;100980.50;5015960;28;20029;-72
2022/12/09 05:16:43;;;;;;;10.90;5.63;;;;;;;-0.89;100.00;100994.16;5034980;28;20033;-71
2022/12/09 05:19:09;;;;;;;7.70;5.20;;;;;;;-0.98;100.00;100993.75;5035910;28;20053;-71
2022/12/09 05:21:35;;;;;;;10.80;5.90;;;;;;;-1.06;100.00;100993.31;5036317;28;20064;-71
2022/12/09 05:24:01;;;;;;;11.90;6.10;;;;;;;-1.09;100.00;100998.72;5032533;28;20044;-70
2022/12/09 05:26:27;;;;;;;7.50;5.57;;;;;;;-1.08;100.00;100989.94;5014584;28;20021;-71
2022/12/09 05:28:53;;;;;;;9.73;6.77;;;;;;;-1.04;100.00;100991.47;5032831;28;20276;-73
2022/12/09 05:31:21;;;;;;;14.70;9.43;;;;;;;-0.99;100.00;100994.66;5032696;28;20425;-72
2022/12/09 05:33:48;;;;;;;13.57;9.40;;;;;;;-1.03;100.00;100990.53;5015355;28;20041;-70
2022/12/09 05:36:17;;;;;;;16.53;9.40;;;;;;;-1.19;100.00;100971.38;5014462;28;20116;-69
2022/12/09 05:38:43;;;;;;;15.40;8.60;;;;;;;-1.00;100.00;100999.97;5033627;28;20290;-69
2022/12/09 05:41:09;;;;;;;16.97;10.60;;;;;;;-0.98;100.00;100993.75;5037219;28;20060;-70
2022/12/09 05:43:38;;;;;;;9.73;7.23;;;;;;;-1.01;100.00;100995.69;5033759;28;20470;-70
2022/12/09 05:46:04;;;;;;;9.82;6.25;;;;;;;-1.02;100.00;100986.16;4998216;28;20036;-69
2022/12/09 05:48:30;;;;;;;10.40;6.67;;;;;;;-0.98;100.00;100998.13;5031810;28;20049;-71
2022/12/09 05:51:07;;;;;;;10.63;6.37;;;;;;;-1.15;100.00;100967.69;5031692;28;20706;-71
2022/12/09 05:53:33;;;;;;;9.50;6.13;;;;;;;-1.00;100.00;100992.97;5014253;28;20037;-73
2022/12/09 05:55:58;;;;;;;10.30;7.77;;;;;;;-0.97;100.00;100990.19;5030665;28;20268;-73
2022/12/09 05:58:24;;;;;;;9.67;6.60;;;;;;;-1.03;100.00;100981.84;5012152;28;20256;-74
2022/12/09 06:00:50;;;;;;;12.07;8.93;;;;;;;-0.95;100.00;100980.50;5030180;28;20029;-71
2022/12/09 06:03:17;;;;;;;11.67;7.70;;;;;;;-0.91;100.00;101006.47;5013021;28;20073;-73
2022/12/09 06:05:42;;;;;;;11.30;6.20;;;;;;;-0.97;100.00;100995.44;5029552;28;20385;-75
2022/12/09 06:08:08;;;;;;;9.00;6.27;;;;;;;-0.98;100.00;101000.75;5012521;28;20095;-74
2022/12/09 06:10:37;;;;;;;14.00;8.00;;;;;;;-0.90;100.00;100997.69;5030938;28;20120;-71
2022/12/09 06:13:03;;;;;;;13.77;8.83;;;;;;;-0.92;100.00;100989.94;5014002;28;20071;-71
2022/12/09 06:15:28;;;;;;;14.43;8.07;;;;;;;-0.85;100.00;100987.84;5031607;28;20656;-70
2022/12/09 06:17:55;;;;;;;10.13;6.97;;;;;;;-0.84;100.00;100992.16;5033591;28;20077;-70
2022/12/09 06:20:20;;;;;;;9.13;7.97;;;;;;;-0.96;100.00;100991.88;5035133;28;20033;-71
2022/12/09 06:22:46;;;;;;;13.20;9.10;;;;;;;-0.99;100.00;100989.44;5035211;28;20359;-67
2022/12/09 06:25:11;;;;;;;11.30;6.93;;;;;;;-0.95;100.00;100998.78;5035429;28;20026;-68
2022/12/09 06:27:38;;;;;;;12.33;7.70;;;;;;;-1.01;100.00;100988.69;5036070;28;20033;-71
2022/12/09 06:30:05;;;;;;;14.23;7.93;;;;;;;-1.00;100.00;100987.75;5036590;28;20639;-72
2022/12/09 06:32:30;;;;;;;11.77;7.90;;;;;;;-1.01;100.00;100980.84;5033890;28;20576;-71
2022/12/09 06:34:56;;;;;;;9.70;7.87;;;;;;;-0.88;100.00;100995.84;5034684;28;20351;-72
2022/12/09 06:37:21;;;;;;;12.07;7.70;;;;;;;-0.88;100.00;100990.63;5035118;28;20079;-70
2022/12/09 06:39:47;;;;;;;9.67;7.00;;;;;;;-0.87;100.00;101008.00;5035533;28;20069;-74
2022/12/09 06:42:12;;;;;;;12.80;7.13;;;;;;;-0.88;100.00;101006.31;5017487;28;20028;-71
2022/12/09 06:44:39;;;;;;;13.97;7.50;;;;;;;-0.90;100.00;101005.53;5035212;28;20033;-73
2022/12/09 06:47:05;;;;;;;10.47;7.30;;;;;;;-0.91;100.00;100996.84;5034499;28;20040;-69
2022/12/09 06:49:31;;;;;;;11.33;7.33;;;;;;;-0.97;100.00;100998.03;5034676;28;20268;-70
2022/12/09 06:51:56;;;;;;;10.00;7.33;;;;;;;-1.03;100.00;100984.47;5016748;28;20339;-74
2022/12/09 06:54:22;;;;;;;12.63;7.60;;;;;;;-1.06;100.00;100989.88;5017097;28;20033;-72
2022/12/09 06:56:47;;;;;;;11.93;7.10;;;;;;;-1.10;100.00;100990.97;5034976;28;20021;-73
2022/12/09 06:59:12;;;;;;;10.67;7.20;;;;;;;-1.15;100.00;101004.28;5036957;28;20033;-71
2022/12/09 07:01:38;;;;;;;10.93;7.90;;;;;;;-1.14;100.00;100994.66;5039081;28;20171;-72
2022/12/09 07:04:04;;;;;;;10.07;6.60;;;;;;;-1.19;100.00;100997.50;5038688;28;20068;-71
2022/12/09 07:06:33;;;;;;;8.83;6.93;;;;;;;-1.16;100.00;100999.09;5041569;28;20029;-69
2022/12/09 07:09:03;;;;;;;9.43;6.55;;;;;;;-1.14;100.00;101008.56;5037277;28;20580;-70
2022/12/09 07:11:29;;;;;;;11.57;7.33;;;;;;;-1.08;100.00;101000.41;5038547;28;20380;-68
2022/12/09 07:13:55;;;;;;;10.50;6.37;;;;;;;-1.08;100.00;100996.94;5004685;28;20374;-68
2022/12/09 07:16:20;;;;;;;9.13;6.43;;;;;;;-1.08;100.00;101004.78;5025532;28;20021;-70
2022/12/09 07:18:48;;;;;;;12.93;6.90;;;;;;;-1.13;100.00;100986.75;5038180;28;20123;-70
2022/12/09 07:21:16;;;;;;;9.43;6.18;;;;;;;-1.00;100.00;101000.81;5034036;28;20044;-70
2022/12/09 07:23:41;;;;;;;11.87;7.73;;;;;;;-0.96;100.00;100999.72;5034052;28;20175;-71
2022/12/09 07:26:08;;;;;;;14.53;8.13;;;;;;;-0.93;100.00;100993.47;5016204;28;20748;-71
2022/12/09 07:28:35;;;;;;;12.13;8.47;;;;;;;-0.85;100.00;101001.78;5015756;28;20478;-69
2022/12/09 07:31:01;;;;;;;12.77;7.80;;;;;;;-0.84;100.00;100986.94;5034039;28;20296;-70
2022/12/09 07:33:27;;;;;;;12.73;8.27;;;;;;;-0.78;100.00;100992.66;5034219;28;20268;-72
2022/12/09 07:35:57;;;;;;;10.13;7.13;;;;;;;-0.83;100.00;100991.22;5034001;28;20747;-72
2022/12/09 07:38:24;;;;;;;10.03;7.87;;;;;;;-0.79;100.00;101003.22;5033912;28;20260;-70
2022/12/09 07:40:50;;;;;;;12.77;6.97;;;;;;;-0.85;100.00;100993.09;5016028;28;20283;-72
2022/12/09 07:43:16;;;;;;;12.00;6.57;;;;;;;-0.89;100.00;100995.00;5034289;28;20256;-73
2022/12/09 07:45:41;;;;;;;13.50;6.77;;;;;;;-0.88;100.00;100990.63;5033366;28;20176;-72
2022/12/09 07:48:10;;;;;;;12.43;7.10;;;;;;;-0.99;100.00;100984.22;5016013;28;20032;-71
2022/12/09 07:50:36;;;;;;;13.07;8.20;;;;;;;-0.99;100.00;100973.75;5016348;28;20022;-73
2022/12/09 07:53:03;;;;;;;14.33;8.20;;;;;;;-0.87;100.00;100981.84;5033968;28;20051;-73
2022/12/09 07:55:29;;;;;;;16.13;7.50;;;;;;;-0.77;100.00;100983.03;5033665;28;20252;-72
2022/12/09 07:57:54;;;;;;;10.73;8.27;;;;;;;-0.78;100.00;100976.97;5034214;28;20272;-73
2022/12/09 08:00:20;;;;;;;14.80;8.67;;;;;;;-0.75;100.00;100975.94;5033783;28;20311;-74
2022/12/09 08:02:45;;;;;;;14.37;7.87;;;;;;;-0.78;100.00;100973.50;5015941;28;20377;-74
2022/12/09 08:05:11;;;;;;;16.40;9.70;;;;;;;-0.80;100.00;100962.28;5033504;28;20033;-72
2022/12/09 08:07:37;;;;;;;14.80;10.17;;;;;;;-0.80;100.00;100967.53;5034039;28;20456;-75
2022/12/09 08:10:03;;;;;;;16.43;8.80;;;;;;;-0.74;100.00;100977.63;5033965;28;20120;-71
2022/12/09 08:12:30;;;;;;;13.10;8.67;;;;;;;-0.76;100.00;100967.25;5033678;28;20029;-68
2022/12/09 08:14:55;;;;;;;15.57;8.90;;;;;;;-0.78;100.00;100965.66;5033162;28;20310;-71
2022/12/09 08:17:21;;;;;;;13.47;7.50;;;;;;;-0.73;100.00;100974.09;5033432;28;20056;-70
2022/12/09 08:19:48;;;;;;;15.37;7.93;;;;;;;-0.86;100.00;100962.63;5034072;28;20501;-70
2022/12/09 08:22:14;;;;;;;13.20;8.33;;;;;;;-0.88;100.00;100967.09;5015381;28;20129;-70
2022/12/09 08:24:39;;;;;;;11.17;7.40;;;;;;;-0.80;100.00;100970.13;5033504;28;20599;-69
2022/12/09 08:27:05;;;;;;;13.07;7.87;;;;;;;-0.76;100.00;100966.41;5033122;28;20033;-68
2022/12/09 08:29:30;;;;;;;10.90;8.23;;;;;;;-0.70;100.00;100958.22;5032705;28;20017;-68
2022/12/09 08:31:56;;;;;;;10.40;7.87;;;;;;;-0.67;100.00;100968.50;5033094;28;20074;-69
2022/12/09 08:34:21;;;;;;;11.50;8.67;;;;;;;-0.65;100.00;100964.03;5033042;28;20030;-69
2022/12/09 08:36:47;;;;;;;13.03;7.97;;;;;;;-0.61;100.00;100957.69;5033070;28;20029;-68
2022/12/09 08:39:13;;;;;;;12.87;8.27;;;;;;;-0.47;100.00;100959.56;5032500;28;20067;-69
2022/12/09 08:41:39;;;;;;;10.40;8.27;;;;;;;-0.44;99.25;100954.97;5032224;28;20036;-68
2022/12/09 08:44:15;;;;;;;17.07;9.00;;;;;;;-0.53;99.35;100955.53;5032237;28;20268;-71
2022/12/09 08:46:44;;;;;;;12.50;8.43;;;;;;;-0.55;99.72;100960.00;5032888;28;20075;-69
2022/12/09 08:49:10;;;;;;;;;;;;;;;-0.52;99.97;100957.19;5033088;28;20325;-68
2022/12/09 08:51:36;;;;;;;13.43;10.10;;;;;;;-0.59;99.57;100944.53;5032377;28;19909;-69
2022/12/09 08:54:03;;;;;;;17.40;10.40;;;;;;;-0.58;99.34;100951.44;5032425;28;20033;-69
2022/12/09 08:56:28;;;;;;;14.63;10.07;;;;;;;-0.59;99.99;100957.59;5032200;28;20033;-67
2022/12/09 08:58:54;;;;;;;17.00;10.60;;;;;;;-0.73;100.00;100947.94;5032289;28;20268;-70
2022/12/09 09:01:30;;;;;;;18.60;11.27;;;;;;;-0.81;100.00;100944.91;5015094;28;20036;-70
2022/12/09 09:04:00;;;;;;;15.07;11.00;;;;;;;-0.89;100.00;100941.88;5032474;28;20116;-67
2022/12/09 09:06:30;;;;;;;19.30;12.13;;;;;;;-0.97;100.00;100931.84;5032319;28;20292;-69
2022/12/09 09:08:56;;;;;;;17.33;11.67;;;;;;;-1.02;100.00;100921.63;5032444;28;20268;-70
2022/12/09 09:11:23;;;;;;;20.27;12.03;;;;;;;-0.98;100.00;100933.59;5014530;28;20025;-69
2022/12/09 09:13:52;;;;;;;19.73;12.80;;;;;;;-1.01;100.00;100925.94;5032213;28;20283;-70
2022/12/09 09:16:23;;;;;;;18.27;12.30;;;;;;;-1.01;100.00;100923.31;5031968;28;20347;-69
2022/12/09 09:18:48;;;;;;;19.90;13.40;;;;;;;-0.99;100.00;100926.69;5031804;28;20292;-69
2022/12/09 09:21:16;;;;;;;21.40;13.70;;;;;;;-0.97;100.00;100911.78;5031916;28;20279;-70
2022/12/09 09:23:42;;;;;;;21.07;15.43;;;;;;;-0.85;100.00;100930.34;5031888;28;20021;-71
2022/12/09 09:26:12;;;;;;;26.00;16.07;;;;;;;-0.79;100.00;100916.91;5032164;28;20771;-70
2022/12/09 09:28:38;;;;;;;21.97;12.63;;;;;;;-0.78;100.00;100926.44;5032062;28;20079;-70
2022/12/09 09:31:06;;;;;;;19.67;13.83;;;;;;;-1.10;100.00;100858.50;5031618;28;20279;-71
2022/12/09 09:33:31;;;;;;;18.57;13.10;;;;;;;-0.81;100.00;100903.09;5031669;28;20318;-69
2022/12/09 09:35:59;;;;;;;20.87;13.80;;;;;;;-0.73;100.00;100903.47;5031953;28;20268;-70
2022/12/09 09:38:25;;;;;;;22.13;14.43;;;;;;;-0.74;100.00;100909.66;5030997;28;20120;-70
2022/12/09 09:40:51;;;;;;;19.40;14.47;;;;;;;-0.84;100.00;100892.81;5031936;28;20260;-71
2022/12/09 09:43:20;;;;;;;23.63;14.70;;;;;;;-0.78;100.00;100895.06;5031832;28;20271;-70
2022/12/09 09:45:47;;;;;;;20.13;13.00;;;;;;;-0.90;100.00;100882.66;5030480;28;20294;-69
2022/12/09 09:48:18;;;;;;;21.30;12.67;;;;;;;-0.86;100.00;100889.44;5032171;28;20268;-72
2022/12/09 09:50:52;;;;;;;18.53;13.23;;;;;;;-0.87;100.00;100895.56;5030903;28;21183;-68
2022/12/09 09:53:20;;;;;;;18.57;13.37;;;;;;;-0.90;100.00;100904.41;5035783;28;20620;-68
2022/12/09 09:55:58;;;;;;;17.67;13.30;;;;;;;-0.88;100.00;100897.34;5035927;28;20720;-70
2022/12/09 09:58:32;;;;;;;20.60;12.35;;;;;;;-0.85;100.00;100885.88;5034660;28;20034;-71
2022/12/09 10:01:06;;;;;;;18.80;12.07;;;;;;;-0.80;100.00;100881.22;5036813;28;20026;-72
2022/12/09 10:03:43;;;;;;;19.57;14.17;;;;;;;-0.79;100.00;100880.31;5037202;28;20260;-72
2022/12/09 10:06:42;;;;;;;23.87;15.07;;;;;;;-0.85;100.00;100876.25;5037010;28;20280;-72
2022/12/09 10:09:48;;;;;;;19.97;13.93;;;;;;;-1.18;100.00;100829.31;5036249;28;20296;-71
2022/12/09 10:12:35;;;;;;;18.13;12.93;;;;;;;-0.82;100.00;100870.03;5036554;28;20276;-71
2022/12/09 10:15:18;;;;;;;20.63;14.20;;;;;;;-0.85;100.00;100876.25;5036034;28;20757;-70
2022/12/09 10:17:49;;;;;;;18.87;13.40;;;;;;;-0.95;100.00;100860.25;5035155;28;20751;-72
2022/12/09 10:20:19;;;;;;;19.37;14.87;;;;;;;-0.95;100.00;100869.84;5035894;28;20724;-70
2022/12/09 10:23:09;;;;;;;19.43;13.87;;;;;;;-0.94;100.00;100869.75;5035461;28;20264;-70
2022/12/09 10:25:43;;;;;;;43.30;23.23;;;;;;;-0.98;100.00;100852.56;5035755;28;20347;-69
2022/12/09 10:28:20;;;;;;;34.70;20.37;;;;;;;-0.91;100.00;100860.06;5035042;28;20295;-72
2022/12/09 10:30:47;;;;;;;35.80;22.00;;;;;;;-1.24;100.00;100811.38;5035493;28;20386;-73
2022/12/09 10:33:14;;;;;;;29.63;18.33;;;;;;;-0.98;100.00;100855.19;5035331;28;20329;-72
2022/12/09 10:35:40;;;;;;;22.50;15.47;;;;;;;-0.97;100.00;100862.09;5035068;28;20260;-76
2022/12/09 10:38:10;;;;;;;20.70;13.87;;;;;;;-0.93;100.00;100858.38;5034971;28;20260;-75
2022/12/09 10:40:46;;;;;;;22.10;13.93;;;;;;;-0.88;100.00;100854.66;5034965;28;20599;-74
2022/12/09 10:43:41;;;;;;;23.77;13.97;;;;;;;-0.87;100.00;100851.09;5035137;28;20252;-73
2022/12/09 10:46:06;;;;;;;21.27;13.77;;;;;;;-0.94;100.00;100846.22;5034918;28;20438;-69
2022/12/09 10:49:02;;;;;;;21.93;15.17;;;;;;;-0.83;100.00;100847.41;5034808;28;20778;-70
2022/12/09 10:51:30;;;;;;;17.93;12.83;;;;;;;-0.83;100.00;100844.81;5034854;28;20048;-71
2022/12/09 10:53:59;;;;;;;20.45;13.13;;;;;;;-0.94;100.00;100833.16;5034381;28;20260;-71
2022/12/09 10:56:28;;;;;;;;;;;;;;;-0.91;100.00;100839.16;5035459;28;20025;-70
2022/12/09 10:59:26;;;;;;;20.97;12.67;;;;;;;-0.96;100.00;100834.19;5035083;28;19908;-70
2022/12/09 11:02:17;;;;;;;23.90;13.07;;;;;;;-0.92;100.00;100838.31;5034773;28;20342;-71
2022/12/09 11:04:43;;;;;;;19.80;12.43;;;;;;;-1.09;100.00;100812.28;5034322;28;20373;-72
2022/12/09 11:07:09;;;;;;;20.30;13.10;;;;;;;-0.98;100.00;100833.44;5034319;28;20284;-70
2022/12/09 11:09:59;;;;;;;25.53;13.33;;;;;;;-0.95;100.00;100836.72;5034388;28;20260;-68
2022/12/09 11:12:28;;;;;;;18.77;12.63;;;;;;;-0.93;100.00;100832.22;5034612;28;20264;-69
2022/12/09 11:15:02;;;;;;;18.60;10.98;;;;;;;-0.90;100.00;100825.16;5034208;28;20412;-70
2022/12/09 11:17:33;;;;;;;18.70;11.73;;;;;;;-0.95;100.00;100823.63;5034603;28;20033;-72
2022/12/09 11:20:15;;;;;;;18.10;11.73;;;;;;;-0.99;100.00;100816.06;5033952;28;20295;-70
2022/12/09 11:22:43;;;;;;;18.67;12.03;;;;;;;-1.07;100.00;100813.91;5034021;28;20264;-71